Redbourn, United Kingdom
Current Conditions -  °F | °C
As of 3:20 PM on Saturday 25 Oct 2014 (Local Time) from EGGW Reporting Station
Scattered Clouds Scattered Clouds  
Wind Chill: 55°   Ceiling: Unl
Heat Index: 55°   Visibility: 6mi
Dew Point: 46°   Wind: 14mph
Humidity: 72%   Direction: 240°WSW
Pressure: 30.06"   Gusts: NA
Location:  51.8°N, 0.4°W
Report Text: EGGW 251420Z 24012KT 9999 FEW030 SCT041 13/08 Q1018
Loading
Personal Weather Stations






























Interactive Weather Map
Tropical Storm Tracking
New forecast layout! Learn more

10-Day Weather Forecast

Advertisements
Track Severe Weather on mobile